sensor_id;sensor_type;location;lat;lon;timestamp;temperature;humidity
33831;DHT22;20137;48.834;8.732;2023-02-19T00:01:08;7.80;99.90
33831;DHT22;20137;48.834;8.732;2023-02-19T00:03:35;7.70;99.90
33831;DHT22;20137;48.834;8.732;2023-02-19T00:06:02;7.70;99.90
33831;DHT22;20137;48.834;8.732;2023-02-19T00:08:30;7.70;99.90
33831;DHT22;20137;48.834;8.732;2023-02-19T00:11:07;7.70;99.90
33831;DHT22;20137;48.834;8.732;2023-02-19T00:13:41;7.80;99.90
33831;DHT22;20137;48.834;8.732;2023-02-19T00:16:11;7.70;99.90
33831;DHT22;20137;48.834;8.732;2023-02-19T00:18:38;7.70;99.90
33831;DHT22;20137;48.834;8.732;2023-02-19T00:21:04;7.70;99.90
33831;DHT22;20137;48.834;8.732;2023-02-19T00:23:30;7.70;99.90
33831;DHT22;20137;48.834;8.732;2023-02-19T00:26:00;7.70;99.90
33831;DHT22;20137;48.834;8.732;2023-02-19T00:28:26;7.60;99.90
33831;DHT22;20137;48.834;8.732;2023-02-19T00:30:51;7.70;99.90
33831;DHT22;20137;48.834;8.732;2023-02-19T00:33:17;7.80;99.90
33831;DHT22;20137;48.834;8.732;2023-02-19T00:35:42;7.70;99.90
33831;DHT22;20137;48.834;8.732;2023-02-19T00:38:08;7.70;99.90
33831;DHT22;20137;48.834;8.732;2023-02-19T00:40:34;7.80;99.90
33831;DHT22;20137;48.834;8.732;2023-02-19T00:43:00;7.70;99.90
33831;DHT22;20137;48.834;8.732;2023-02-19T00:45:25;7.80;99.90
33831;DHT22;20137;48.834;8.732;2023-02-19T00:47:51;7.70;99.90
33831;DHT22;20137;48.834;8.732;2023-02-19T00:50:17;7.70;99.90
33831;DHT22;20137;48.834;8.732;2023-02-19T00:52:43;7.70;99.90
33831;DHT22;20137;48.834;8.732;2023-02-19T00:55:09;7.60;99.90
33831;DHT22;20137;48.834;8.732;2023-02-19T00:57:34;7.60;99.90
33831;DHT22;20137;48.834;8.732;2023-02-19T01:00:00;7.70;99.90
33831;DHT22;20137;48.834;8.732;2023-02-19T01:02:26;7.70;99.90
33831;DHT22;20137;48.834;8.732;2023-02-19T01:04:52;7.70;99.90
33831;DHT22;20137;48.834;8.732;2023-02-19T01:07:17;7.60;99.90
33831;DHT22;20137;48.834;8.732;2023-02-19T01:09:43;7.70;99.90
33831;DHT22;20137;48.834;8.732;2023-02-19T01:12:09;7.70;99.90
33831;DHT22;20137;48.834;8.732;2023-02-19T01:14:35;7.60;99.90
33831;DHT22;20137;48.834;8.732;2023-02-19T01:17:00;7.70;99.90
33831;DHT22;20137;48.834;8.732;2023-02-19T01:19:26;7.70;99.90
33831;DHT22;20137;48.834;8.732;2023-02-19T01:21:52;7.60;99.90
33831;DHT22;20137;48.834;8.732;2023-02-19T01:24:17;7.60;99.90
33831;DHT22;20137;48.834;8.732;2023-02-19T01:26:43;7.80;99.90
33831;DHT22;20137;48.834;8.732;2023-02-19T01:29:09;7.70;99.90
33831;DHT22;20137;48.834;8.732;2023-02-19T01:31:35;7.80;99.90
33831;DHT22;20137;48.834;8.732;2023-02-19T01:34:02;7.70;99.90
33831;DHT22;20137;48.834;8.732;2023-02-19T01:36:29;7.70;99.90
33831;DHT22;20137;48.834;8.732;2023-02-19T01:38:59;7.70;99.90
33831;DHT22;20137;48.834;8.732;2023-02-19T01:41:24;7.80;99.90
33831;DHT22;20137;48.834;8.732;2023-02-19T01:43:58;7.70;99.90
33831;DHT22;20137;48.834;8.732;2023-02-19T01:46:26;7.70;99.90
33831;DHT22;20137;48.834;8.732;2023-02-19T01:48:53;7.80;99.90
33831;DHT22;20137;48.834;8.732;2023-02-19T01:51:21;7.80;99.90
33831;DHT22;20137;48.834;8.732;2023-02-19T01:53:53;7.80;99.90
33831;DHT22;20137;48.834;8.732;2023-02-19T01:56:21;7.80;99.90
33831;DHT22;20137;48.834;8.732;2023-02-19T01:58:47;7.80;99.90
33831;DHT22;20137;48.834;8.732;2023-02-19T02:01:13;7.80;99.90
33831;DHT22;20137;48.834;8.732;2023-02-19T02:03:41;7.80;99.90
33831;DHT22;20137;48.834;8.732;2023-02-19T02:06:17;7.70;99.90
33831;DHT22;20137;48.834;8.732;2023-02-19T02:08:46;7.70;99.90
33831;DHT22;20137;48.834;8.732;2023-02-19T02:11:30;7.60;99.90
33831;DHT22;20137;48.834;8.732;2023-02-19T02:13:57;7.60;99.90
33831;DHT22;20137;48.834;8.732;2023-02-19T02:22:22;7.50;99.90
33831;DHT22;20137;48.834;8.732;2023-02-19T02:25:14;7.50;99.90
33831;DHT22;20137;48.834;8.732;2023-02-19T02:27:52;7.50;99.90
33831;DHT22;20137;48.834;8.732;2023-02-19T02:33:16;7.50;99.90
33831;DHT22;20137;48.834;8.732;2023-02-19T02:35:57;7.50;99.90
33831;DHT22;20137;48.834;8.732;2023-02-19T02:38:27;7.50;99.90
33831;DHT22;20137;48.834;8.732;2023-02-19T02:40:54;7.50;99.90
33831;DHT22;20137;48.834;8.732;2023-02-19T02:43:20;7.40;99.90
33831;DHT22;20137;48.834;8.732;2023-02-19T02:45:46;7.50;99.90
33831;DHT22;20137;48.834;8.732;2023-02-19T02:48:48;7.50;99.90
33831;DHT22;20137;48.834;8.732;2023-02-19T02:53:43;7.50;99.90
33831;DHT22;20137;48.834;8.732;2023-02-19T02:56:30;7.40;99.90
33831;DHT22;20137;48.834;8.732;2023-02-19T02:58:57;7.40;99.90
33831;DHT22;20137;48.834;8.732;2023-02-19T03:01:35;7.40;99.90
33831;DHT22;20137;48.834;8.732;2023-02-19T03:04:32;7.40;99.90
33831;DHT22;20137;48.834;8.732;2023-02-19T03:07:03;7.40;99.90
33831;DHT22;20137;48.834;8.732;2023-02-19T03:09:40;7.40;99.90
33831;DHT22;20137;48.834;8.732;2023-02-19T03:12:13;7.30;99.90
33831;DHT22;20137;48.834;8.732;2023-02-19T03:15:05;7.40;99.90
33831;DHT22;20137;48.834;8.732;2023-02-19T03:17:52;7.40;99.90
33831;DHT22;20137;48.834;8.732;2023-02-19T03:20:41;7.30;99.90
33831;DHT22;20137;48.834;8.732;2023-02-19T03:23:10;7.30;99.90
33831;DHT22;20137;48.834;8.732;2023-02-19T03:25:38;7.30;99.90
33831;DHT22;20137;48.834;8.732;2023-02-19T03:28:25;7.20;99.90
33831;DHT22;20137;48.834;8.732;2023-02-19T03:31:14;7.30;99.90
33831;DHT22;20137;48.834;8.732;2023-02-19T03:33:45;7.30;99.90
33831;DHT22;20137;48.834;8.732;2023-02-19T03:36:13;7.30;99.90
33831;DHT22;20137;48.834;8.732;2023-02-19T03:47:02;7.30;99.90
33831;DHT22;20137;48.834;8.732;2023-02-19T03:49:38;7.20;99.90
33831;DHT22;20137;48.834;8.732;2023-02-19T03:52:12;7.30;99.90
33831;DHT22;20137;48.834;8.732;2023-02-19T03:57:20;7.20;99.90
33831;DHT22;20137;48.834;8.732;2023-02-19T04:00:04;7.20;99.90
33831;DHT22;20137;48.834;8.732;2023-02-19T04:02:36;7.20;99.90
33831;DHT22;20137;48.834;8.732;2023-02-19T04:05:18;7.30;99.90
33831;DHT22;20137;48.834;8.732;2023-02-19T04:07:48;7.20;99.90
33831;DHT22;20137;48.834;8.732;2023-02-19T04:10:15;7.10;99.90
33831;DHT22;20137;48.834;8.732;2023-02-19T04:12:47;7.20;99.90
33831;DHT22;20137;48.834;8.732;2023-02-19T04:15:17;7.10;99.90
33831;DHT22;20137;48.834;8.732;2023-02-19T04:18:13;7.10;99.90
33831;DHT22;20137;48.834;8.732;2023-02-19T04:20:43;7.10;99.90
33831;DHT22;20137;48.834;8.732;2023-02-19T04:23:10;7.10;99.90
33831;DHT22;20137;48.834;8.732;2023-02-19T04:25:37;7.00;99.90
33831;DHT22;20137;48.834;8.732;2023-02-19T04:28:04;7.10;99.90
33831;DHT22;20137;48.834;8.732;2023-02-19T04:30:30;7.00;99.90
33831;DHT22;20137;48.834;8.732;2023-02-19T04:32:55;7.00;99.90
33831;DHT22;20137;48.834;8.732;2023-02-19T04:35:21;7.40;99.90
33831;DHT22;20137;48.834;8.732;2023-02-19T04:37:47;7.00;99.90
33831;DHT22;20137;48.834;8.732;2023-02-19T04:40:12;6.90;99.90
33831;DHT22;20137;48.834;8.732;2023-02-19T04:42:38;6.90;99.90
33831;DHT22;20137;48.834;8.732;2023-02-19T04:45:04;6.90;99.90
33831;DHT22;20137;48.834;8.732;2023-02-19T04:47:31;7.00;99.90
33831;DHT22;20137;48.834;8.732;2023-02-19T04:49:56;6.90;99.90
33831;DHT22;20137;48.834;8.732;2023-02-19T04:52:22;6.90;99.90
33831;DHT22;20137;48.834;8.732;2023-02-19T04:54:48;7.00;99.90
33831;DHT22;20137;48.834;8.732;2023-02-19T04:57:13;7.00;99.90
33831;DHT22;20137;48.834;8.732;2023-02-19T04:59:39;6.90;99.90
33831;DHT22;20137;48.834;8.732;2023-02-19T05:02:04;7.00;99.90
33831;DHT22;20137;48.834;8.732;2023-02-19T05:04:30;6.90;99.90
33831;DHT22;20137;48.834;8.732;2023-02-19T05:06:56;6.90;99.90
33831;DHT22;20137;48.834;8.732;2023-02-19T05:09:21;6.90;99.90
33831;DHT22;20137;48.834;8.732;2023-02-19T05:11:47;6.90;99.90
33831;DHT22;20137;48.834;8.732;2023-02-19T05:14:13;6.90;99.90
33831;DHT22;20137;48.834;8.732;2023-02-19T05:16:38;6.90;99.90
33831;DHT22;20137;48.834;8.732;2023-02-19T05:19:04;6.90;99.90
33831;DHT22;20137;48.834;8.732;2023-02-19T05:21:29;6.80;99.90
33831;DHT22;20137;48.834;8.732;2023-02-19T05:23:55;6.80;99.90
33831;DHT22;20137;48.834;8.732;2023-02-19T05:26:22;6.80;99.90
33831;DHT22;20137;48.834;8.732;2023-02-19T05:28:52;6.80;99.90
33831;DHT22;20137;48.834;8.732;2023-02-19T05:31:18;6.80;99.90
33831;DHT22;20137;48.834;8.732;2023-02-19T05:33:44;6.80;99.90
33831;DHT22;20137;48.834;8.732;2023-02-19T05:36:15;6.80;99.90
33831;DHT22;20137;48.834;8.732;2023-02-19T05:38:41;6.80;99.90
33831;DHT22;20137;48.834;8.732;2023-02-19T05:41:08;6.80;99.90
33831;DHT22;20137;48.834;8.732;2023-02-19T05:43:34;6.70;99.90
33831;DHT22;20137;48.834;8.732;2023-02-19T05:45:59;6.80;99.90
33831;DHT22;20137;48.834;8.732;2023-02-19T05:48:25;6.70;99.90
33831;DHT22;20137;48.834;8.732;2023-02-19T05:50:50;6.70;99.90
33831;DHT22;20137;48.834;8.732;2023-02-19T05:53:16;6.70;99.90
33831;DHT22;20137;48.834;8.732;2023-02-19T05:55:42;6.80;99.90
33831;DHT22;20137;48.834;8.732;2023-02-19T05:58:07;6.80;99.90
33831;DHT22;20137;48.834;8.732;2023-02-19T06:00:33;6.70;99.90
33831;DHT22;20137;48.834;8.732;2023-02-19T06:02:59;6.80;99.90
33831;DHT22;20137;48.834;8.732;2023-02-19T06:05:25;6.70;99.90
33831;DHT22;20137;48.834;8.732;2023-02-19T06:07:51;6.80;99.90
33831;DHT22;20137;48.834;8.732;2023-02-19T06:10:17;6.80;99.90
33831;DHT22;20137;48.834;8.732;2023-02-19T06:12:43;6.80;99.90
33831;DHT22;20137;48.834;8.732;2023-02-19T06:15:08;6.80;99.90
33831;DHT22;20137;48.834;8.732;2023-02-19T06:17:34;6.80;99.90
33831;DHT22;20137;48.834;8.732;2023-02-19T06:20:00;6.80;99.90
33831;DHT22;20137;48.834;8.732;2023-02-19T06:22:27;6.80;99.90
33831;DHT22;20137;48.834;8.732;2023-02-19T06:24:52;6.80;99.90
33831;DHT22;20137;48.834;8.732;2023-02-19T06:27:18;6.80;99.90
33831;DHT22;20137;48.834;8.732;2023-02-19T06:29:44;6.80;99.90
33831;DHT22;20137;48.834;8.732;2023-02-19T06:32:10;6.80;99.90
33831;DHT22;20137;48.834;8.732;2023-02-19T06:34:35;6.80;99.90
33831;DHT22;20137;48.834;8.732;2023-02-19T06:37:01;6.80;99.90
33831;DHT22;20137;48.834;8.732;2023-02-19T06:39:27;6.90;99.90
33831;DHT22;20137;48.834;8.732;2023-02-19T06:41:56;6.90;99.90
33831;DHT22;20137;48.834;8.732;2023-02-19T06:44:22;6.80;99.90
33831;DHT22;20137;48.834;8.732;2023-02-19T06:46:48;6.80;99.90
33831;DHT22;20137;48.834;8.732;2023-02-19T06:49:14;6.90;99.90
33831;DHT22;20137;48.834;8.732;2023-02-19T06:51:40;6.80;99.90
33831;DHT22;20137;48.834;8.732;2023-02-19T06:54:05;6.90;99.90
33831;DHT22;20137;48.834;8.732;2023-02-19T06:56:36;6.90;99.90
33831;DHT22;20137;48.834;8.732;2023-02-19T06:59:12;7.00;99.90
33831;DHT22;20137;48.834;8.732;2023-02-19T07:01:39;6.90;99.90
33831;DHT22;20137;48.834;8.732;2023-02-19T07:04:05;6.90;99.90
33831;DHT22;20137;48.834;8.732;2023-02-19T07:06:32;7.00;99.90
33831;DHT22;20137;48.834;8.732;2023-02-19T07:08:58;7.00;99.90
33831;DHT22;20137;48.834;8.732;2023-02-19T07:11:25;7.00;99.90
33831;DHT22;20137;48.834;8.732;2023-02-19T07:13:58;7.00;99.90
33831;DHT22;20137;48.834;8.732;2023-02-19T07:16:24;7.00;99.90
33831;DHT22;20137;48.834;8.732;2023-02-19T07:18:50;7.00;99.90
33831;DHT22;20137;48.834;8.732;2023-02-19T07:21:16;7.00;99.90
33831;DHT22;20137;48.834;8.732;2023-02-19T07:23:43;7.10;99.90
33831;DHT22;20137;48.834;8.732;2023-02-19T07:26:10;7.10;99.90
33831;DHT22;20137;48.834;8.732;2023-02-19T07:28:38;7.20;99.90
33831;DHT22;20137;48.834;8.732;2023-02-19T07:31:05;7.10;99.90
33831;DHT22;20137;48.834;8.732;2023-02-19T07:33:30;7.20;99.90
33831;DHT22;20137;48.834;8.732;2023-02-19T07:35:56;7.20;99.90
33831;DHT22;20137;48.834;8.732;2023-02-19T07:38:23;7.30;99.90
33831;DHT22;20137;48.834;8.732;2023-02-19T07:41:00;7.20;99.90
33831;DHT22;20137;48.834;8.732;2023-02-19T07:43:29;7.30;99.90
33831;DHT22;20137;48.834;8.732;2023-02-19T07:45:54;7.40;99.90
33831;DHT22;20137;48.834;8.732;2023-02-19T07:48:20;7.50;99.90
33831;DHT22;20137;48.834;8.732;2023-02-19T07:50:57;7.40;99.90
33831;DHT22;20137;48.834;8.732;2023-02-19T07:53:23;7.40;99.90
33831;DHT22;20137;48.834;8.732;2023-02-19T07:55:50;7.30;99.90
33831;DHT22;20137;48.834;8.732;2023-02-19T07:58:16;7.40;99.90
33831;DHT22;20137;48.834;8.732;2023-02-19T08:00:41;7.40;99.90
33831;DHT22;20137;48.834;8.732;2023-02-19T08:03:07;7.30;99.90
33831;DHT22;20137;48.834;8.732;2023-02-19T08:05:36;7.20;99.90
33831;DHT22;20137;48.834;8.732;2023-02-19T08:08:06;7.20;99.90
33831;DHT22;20137;48.834;8.732;2023-02-19T08:10:32;7.20;99.90
33831;DHT22;20137;48.834;8.732;2023-02-19T08:13:16;7.20;99.90
33831;DHT22;20137;48.834;8.732;2023-02-19T08:15:48;7.30;99.90
33831;DHT22;20137;48.834;8.732;2023-02-19T08:18:15;7.30;99.90
33831;DHT22;20137;48.834;8.732;2023-02-19T08:20:41;7.40;99.90
33831;DHT22;20137;48.834;8.732;2023-02-19T08:23:08;7.40;99.90
33831;DHT22;20137;48.834;8.732;2023-02-19T08:25:34;7.40;99.90
33831;DHT22;20137;48.834;8.732;2023-02-19T08:28:00;7.50;99.90
33831;DHT22;20137;48.834;8.732;2023-02-19T08:30:27;7.50;99.90
33831;DHT22;20137;48.834;8.732;2023-02-19T08:32:54;7.50;99.90
33831;DHT22;20137;48.834;8.732;2023-02-19T08:35:20;7.50;99.90
33831;DHT22;20137;48.834;8.732;2023-02-19T08:37:46;7.50;99.90
33831;DHT22;20137;48.834;8.732;2023-02-19T08:40:12;7.50;99.90
33831;DHT22;20137;48.834;8.732;2023-02-19T08:42:38;7.50;99.90
33831;DHT22;20137;48.834;8.732;2023-02-19T08:45:04;7.50;99.90
33831;DHT22;20137;48.834;8.732;2023-02-19T08:47:30;7.50;99.90
33831;DHT22;20137;48.834;8.732;2023-02-19T08:49:56;7.50;99.90
33831;DHT22;20137;48.834;8.732;2023-02-19T08:52:22;7.50;99.90
33831;DHT22;20137;48.834;8.732;2023-02-19T08:54:47;7.60;99.90
33831;DHT22;20137;48.834;8.732;2023-02-19T08:57:13;7.60;99.90
33831;DHT22;20137;48.834;8.732;2023-02-19T08:59:38;7.60;99.90
33831;DHT22;20137;48.834;8.732;2023-02-19T09:02:04;7.60;99.90
33831;DHT22;20137;48.834;8.732;2023-02-19T09:04:30;7.70;99.90
33831;DHT22;20137;48.834;8.732;2023-02-19T09:06:55;7.70;99.90
33831;DHT22;20137;48.834;8.732;2023-02-19T09:09:21;7.80;99.90
33831;DHT22;20137;48.834;8.732;2023-02-19T09:11:46;8.00;99.90
33831;DHT22;20137;48.834;8.732;2023-02-19T09:14:12;8.00;99.90
33831;DHT22;20137;48.834;8.732;2023-02-19T09:16:38;8.10;99.90
33831;DHT22;20137;48.834;8.732;2023-02-19T09:19:03;8.10;99.90
33831;DHT22;20137;48.834;8.732;2023-02-19T09:21:29;8.20;99.90
33831;DHT22;20137;48.834;8.732;2023-02-19T09:23:55;8.20;99.90
33831;DHT22;20137;48.834;8.732;2023-02-19T09:26:21;8.00;99.90
33831;DHT22;20137;48.834;8.732;2023-02-19T09:28:46;8.10;99.90
33831;DHT22;20137;48.834;8.732;2023-02-19T09:31:14;8.20;99.90
33831;DHT22;20137;48.834;8.732;2023-02-19T09:33:44;8.20;99.90
33831;DHT22;20137;48.834;8.732;2023-02-19T09:36:11;8.30;99.90
33831;DHT22;20137;48.834;8.732;2023-02-19T09:38:37;8.20;99.90
33831;DHT22;20137;48.834;8.732;2023-02-19T09:41:13;8.30;99.90
33831;DHT22;20137;48.834;8.732;2023-02-19T09:43:39;8.30;99.90
33831;DHT22;20137;48.834;8.732;2023-02-19T09:48:53;8.10;99.90
33831;DHT22;20137;48.834;8.732;2023-02-19T09:51:20;8.10;99.90
33831;DHT22;20137;48.834;8.732;2023-02-19T09:53:48;8.20;99.90
33831;DHT22;20137;48.834;8.732;2023-02-19T09:56:15;8.30;99.90
33831;DHT22;20137;48.834;8.732;2023-02-19T09:58:49;8.40;99.90
33831;DHT22;20137;48.834;8.732;2023-02-19T10:01:17;8.40;99.90
33831;DHT22;20137;48.834;8.732;2023-02-19T10:03:45;8.30;99.90
33831;DHT22;20137;48.834;8.732;2023-02-19T10:06:24;8.40;99.90
33831;DHT22;20137;48.834;8.732;2023-02-19T10:08:55;8.40;99.90
33831;DHT22;20137;48.834;8.732;2023-02-19T10:11:24;8.50;99.90
33831;DHT22;20137;48.834;8.732;2023-02-19T10:13:54;8.50;99.90
33831;DHT22;20137;48.834;8.732;2023-02-19T10:16:27;8.50;99.90
33831;DHT22;20137;48.834;8.732;2023-02-19T10:18:53;8.60;99.90
33831;DHT22;20137;48.834;8.732;2023-02-19T10:21:24;8.60;99.90
33831;DHT22;20137;48.834;8.732;2023-02-19T10:23:58;8.70;99.90
33831;DHT22;20137;48.834;8.732;2023-02-19T10:26:25;8.60;99.90
33831;DHT22;20137;48.834;8.732;2023-02-19T10:28:51;8.60;99.90
33831;DHT22;20137;48.834;8.732;2023-02-19T10:31:22;8.80;99.90
33831;DHT22;20137;48.834;8.732;2023-02-19T10:33:50;8.70;99.90
33831;DHT22;20137;48.834;8.732;2023-02-19T10:36:36;8.80;99.90
33831;DHT22;20137;48.834;8.732;2023-02-19T10:41:49;8.70;99.90
33831;DHT22;20137;48.834;8.732;2023-02-19T10:44:20;8.70;99.90
33831;DHT22;20137;48.834;8.732;2023-02-19T10:46:49;8.70;99.90
33831;DHT22;20137;48.834;8.732;2023-02-19T10:49:38;8.70;99.90
33831;DHT22;20137;48.834;8.732;2023-02-19T10:52:19;8.80;99.90
33831;DHT22;20137;48.834;8.732;2023-02-19T10:54:50;8.80;99.90
33831;DHT22;20137;48.834;8.732;2023-02-19T10:57:24;8.80;99.90
33831;DHT22;20137;48.834;8.732;2023-02-19T11:00:00;8.70;99.90
33831;DHT22;20137;48.834;8.732;2023-02-19T11:02:27;8.50;99.90
33831;DHT22;20137;48.834;8.732;2023-02-19T11:07:37;8.30;99.90
33831;DHT22;20137;48.834;8.732;2023-02-19T11:10:04;8.40;99.90
33831;DHT22;20137;48.834;8.732;2023-02-19T11:12:32;8.40;99.90
33831;DHT22;20137;48.834;8.732;2023-02-19T11:15:24;8.50;99.90
33831;DHT22;20137;48.834;8.732;2023-02-19T11:17:57;8.70;99.90
33831;DHT22;20137;48.834;8.732;2023-02-19T11:20:24;8.90;99.90
33831;DHT22;20137;48.834;8.732;2023-02-19T11:22:50;9.00;99.90
33831;DHT22;20137;48.834;8.732;2023-02-19T11:25:17;9.00;99.90
33831;DHT22;20137;48.834;8.732;2023-02-19T11:32:55;9.30;99.90
33831;DHT22;20137;48.834;8.732;2023-02-19T11:35:21;9.30;99.90
33831;DHT22;20137;48.834;8.732;2023-02-19T11:37:57;9.30;99.90
33831;DHT22;20137;48.834;8.732;2023-02-19T11:46:28;9.90;99.90
33831;DHT22;20137;48.834;8.732;2023-02-19T11:51:39;9.90;99.90
33831;DHT22;20137;48.834;8.732;2023-02-19T11:56:35;9.90;99.90
33831;DHT22;20137;48.834;8.732;2023-02-19T11:59:15;9.70;99.90
33831;DHT22;20137;48.834;8.732;2023-02-19T12:02:24;9.70;99.90
33831;DHT22;20137;48.834;8.732;2023-02-19T12:11:10;9.40;99.90
33831;DHT22;20137;48.834;8.732;2023-02-19T12:22:29;9.70;99.90
33831;DHT22;20137;48.834;8.732;2023-02-19T12:25:33;9.70;99.90
33831;DHT22;20137;48.834;8.732;2023-02-19T12:37:32;9.70;99.90
33831;DHT22;20137;48.834;8.732;2023-02-19T12:40:19;9.60;99.90
33831;DHT22;20137;48.834;8.732;2023-02-19T12:48:39;10.00;99.90
33831;DHT22;20137;48.834;8.732;2023-02-19T12:51:11;10.30;99.90
33831;DHT22;20137;48.834;8.732;2023-02-19T12:53:57;10.40;99.90
33831;DHT22;20137;48.834;8.732;2023-02-19T12:56:34;10.30;99.90
33831;DHT22;20137;48.834;8.732;2023-02-19T12:59:15;10.10;99.90
33831;DHT22;20137;48.834;8.732;2023-02-19T13:01:47;10.20;99.90
33831;DHT22;20137;48.834;8.732;2023-02-19T13:07:08;10.00;99.90
33831;DHT22;20137;48.834;8.732;2023-02-19T13:09:40;10.10;99.90
33831;DHT22;20137;48.834;8.732;2023-02-19T13:12:47;9.80;99.90
33831;DHT22;20137;48.834;8.732;2023-02-19T13:15:16;9.60;99.90
33831;DHT22;20137;48.834;8.732;2023-02-19T13:17:51;9.50;99.90
33831;DHT22;20137;48.834;8.732;2023-02-19T13:20:33;9.50;99.90
33831;DHT22;20137;48.834;8.732;2023-02-19T13:35:39;9.80;99.90
33831;DHT22;20137;48.834;8.732;2023-02-19T13:38:14;9.80;99.90
33831;DHT22;20137;48.834;8.732;2023-02-19T13:40:41;9.60;99.90
33831;DHT22;20137;48.834;8.732;2023-02-19T13:43:23;9.60;99.90
33831;DHT22;20137;48.834;8.732;2023-02-19T13:45:57;9.80;99.90
33831;DHT22;20137;48.834;8.732;2023-02-19T13:48:30;9.70;99.90
33831;DHT22;20137;48.834;8.732;2023-02-19T14:14:42;9.50;99.90
33831;DHT22;20137;48.834;8.732;2023-02-19T14:20:46;9.40;99.90
33831;DHT22;20137;48.834;8.732;2023-02-19T14:22:57;9.40;99.90
33831;DHT22;20137;48.834;8.732;2023-02-19T14:25:37;9.40;99.90
33831;DHT22;20137;48.834;8.732;2023-02-19T14:33:43;9.30;99.90
33831;DHT22;20137;48.834;8.732;2023-02-19T14:36:34;9.30;99.90
33831;DHT22;20137;48.834;8.732;2023-02-19T14:39:15;9.30;99.90
33831;DHT22;20137;48.834;8.732;2023-02-19T14:41:45;9.30;99.90
33831;DHT22;20137;48.834;8.732;2023-02-19T14:44:28;9.30;99.90
33831;DHT22;20137;48.834;8.732;2023-02-19T14:47:02;9.20;99.90
33831;DHT22;20137;48.834;8.732;2023-02-19T14:52:07;9.30;99.90
33831;DHT22;20137;48.834;8.732;2023-02-19T14:55:19;9.40;99.90
33831;DHT22;20137;48.834;8.732;2023-02-19T14:57:38;9.30;99.90
33831;DHT22;20137;48.834;8.732;2023-02-19T15:00:26;9.20;99.90
33831;DHT22;20137;48.834;8.732;2023-02-19T15:02:54;9.20;99.90
33831;DHT22;20137;48.834;8.732;2023-02-19T15:05:27;9.10;99.90
33831;DHT22;20137;48.834;8.732;2023-02-19T15:07:55;9.00;99.90
33831;DHT22;20137;48.834;8.732;2023-02-19T15:10:22;8.90;99.90
33831;DHT22;20137;48.834;8.732;2023-02-19T15:12:55;8.80;99.90
33831;DHT22;20137;48.834;8.732;2023-02-19T15:15:27;8.70;99.90
33831;DHT22;20137;48.834;8.732;2023-02-19T15:17:55;8.60;99.90
33831;DHT22;20137;48.834;8.732;2023-02-19T15:20:26;8.70;99.90
33831;DHT22;20137;48.834;8.732;2023-02-19T15:22:54;8.50;99.90
33831;DHT22;20137;48.834;8.732;2023-02-19T15:25:22;8.50;99.90
33831;DHT22;20137;48.834;8.732;2023-02-19T15:27:48;8.40;99.90
33831;DHT22;20137;48.834;8.732;2023-02-19T15:30:24;8.40;99.90
33831;DHT22;20137;48.834;8.732;2023-02-19T15:32:50;8.30;99.90
33831;DHT22;20137;48.834;8.732;2023-02-19T15:35:21;8.20;99.90
33831;DHT22;20137;48.834;8.732;2023-02-19T15:37:48;8.20;99.90
33831;DHT22;20137;48.834;8.732;2023-02-19T15:40:15;8.30;99.90
33831;DHT22;20137;48.834;8.732;2023-02-19T15:42:43;8.30;99.90
33831;DHT22;20137;48.834;8.732;2023-02-19T15:45:19;8.30;99.90
33831;DHT22;20137;48.834;8.732;2023-02-19T15:48:00;8.30;99.90
33831;DHT22;20137;48.834;8.732;2023-02-19T15:50:33;8.30;99.90
33831;DHT22;20137;48.834;8.732;2023-02-19T15:53:14;8.30;99.90
33831;DHT22;20137;48.834;8.732;2023-02-19T15:56:08;8.40;99.90
33831;DHT22;20137;48.834;8.732;2023-02-19T15:59:25;8.40;99.90
33831;DHT22;20137;48.834;8.732;2023-02-19T16:01:37;8.30;99.90
33831;DHT22;20137;48.834;8.732;2023-02-19T16:04:10;8.40;99.90
33831;DHT22;20137;48.834;8.732;2023-02-19T16:07:00;8.30;99.90
33831;DHT22;20137;48.834;8.732;2023-02-19T16:09:32;8.30;99.90
33831;DHT22;20137;48.834;8.732;2023-02-19T16:12:00;8.30;99.90
33831;DHT22;20137;48.834;8.732;2023-02-19T16:14:34;8.20;99.90
33831;DHT22;20137;48.834;8.732;2023-02-19T16:22:09;8.10;99.90
33831;DHT22;20137;48.834;8.732;2023-02-19T16:24:41;8.00;99.90
33831;DHT22;20137;48.834;8.732;2023-02-19T16:27:10;8.00;99.90
33831;DHT22;20137;48.834;8.732;2023-02-19T16:29:37;8.00;99.90
33831;DHT22;20137;48.834;8.732;2023-02-19T16:32:05;8.00;99.90
33831;DHT22;20137;48.834;8.732;2023-02-19T16:34:47;8.00;99.90
33831;DHT22;20137;48.834;8.732;2023-02-19T16:45:51;7.90;99.90
33831;DHT22;20137;48.834;8.732;2023-02-19T16:48:18;7.90;99.90
33831;DHT22;20137;48.834;8.732;2023-02-19T16:50:45;7.80;99.90
33831;DHT22;20137;48.834;8.732;2023-02-19T16:53:17;7.80;99.90
33831;DHT22;20137;48.834;8.732;2023-02-19T16:55:44;7.70;99.90
33831;DHT22;20137;48.834;8.732;2023-02-19T16:58:10;7.70;99.90
33831;DHT22;20137;48.834;8.732;2023-02-19T17:00:36;7.70;99.90
33831;DHT22;20137;48.834;8.732;2023-02-19T17:03:06;7.70;99.90
33831;DHT22;20137;48.834;8.732;2023-02-19T17:05:34;7.70;99.90
33831;DHT22;20137;48.834;8.732;2023-02-19T17:08:17;7.60;99.90
33831;DHT22;20137;48.834;8.732;2023-02-19T17:10:46;7.60;99.90
33831;DHT22;20137;48.834;8.732;2023-02-19T17:13:11;7.70;99.90
33831;DHT22;20137;48.834;8.732;2023-02-19T17:15:37;7.60;99.90
33831;DHT22;20137;48.834;8.732;2023-02-19T17:18:03;7.60;99.90
33831;DHT22;20137;48.834;8.732;2023-02-19T17:20:29;7.50;99.90
33831;DHT22;20137;48.834;8.732;2023-02-19T17:22:55;7.50;99.90
33831;DHT22;20137;48.834;8.732;2023-02-19T17:25:21;7.50;99.90
33831;DHT22;20137;48.834;8.732;2023-02-19T17:27:47;7.50;99.90
33831;DHT22;20137;48.834;8.732;2023-02-19T17:30:26;7.60;99.90
33831;DHT22;20137;48.834;8.732;2023-02-19T17:32:52;7.50;99.90
33831;DHT22;20137;48.834;8.732;2023-02-19T17:35:18;7.50;99.90
33831;DHT22;20137;48.834;8.732;2023-02-19T17:37:43;7.50;99.90
33831;DHT22;20137;48.834;8.732;2023-02-19T17:42:45;7.50;99.90
33831;DHT22;20137;48.834;8.732;2023-02-19T17:45:11;7.50;99.90
33831;DHT22;20137;48.834;8.732;2023-02-19T17:47:36;7.50;99.90
33831;DHT22;20137;48.834;8.732;2023-02-19T17:50:02;7.50;99.90
33831;DHT22;20137;48.834;8.732;2023-02-19T17:52:29;7.60;99.90
33831;DHT22;20137;48.834;8.732;2023-02-19T17:54:55;7.50;99.90
33831;DHT22;20137;48.834;8.732;2023-02-19T17:57:20;7.50;99.90
33831;DHT22;20137;48.834;8.732;2023-02-19T17:59:46;7.50;99.90
33831;DHT22;20137;48.834;8.732;2023-02-19T18:02:12;7.50;99.90
33831;DHT22;20137;48.834;8.732;2023-02-19T18:04:37;7.60;99.90
33831;DHT22;20137;48.834;8.732;2023-02-19T18:07:03;7.50;99.90
33831;DHT22;20137;48.834;8.732;2023-02-19T18:09:29;7.50;99.90
33831;DHT22;20137;48.834;8.732;2023-02-19T18:11:55;7.50;99.90
33831;DHT22;20137;48.834;8.732;2023-02-19T18:14:21;7.50;99.90
33831;DHT22;20137;48.834;8.732;2023-02-19T18:16:47;7.60;99.90
33831;DHT22;20137;48.834;8.732;2023-02-19T18:19:13;7.60;99.90
33831;DHT22;20137;48.834;8.732;2023-02-19T18:21:39;7.60;99.90
33831;DHT22;20137;48.834;8.732;2023-02-19T18:24:05;7.50;99.90
33831;DHT22;20137;48.834;8.732;2023-02-19T18:26:31;7.60;99.90